sensor_id;sensor_type;location;lat;lon;timestamp;pressure;altitude;pressure_sealevel;temperature;humidity
1652;BME280;823;49.028;8.454;2023-02-04T00:00:20;101842.63;;;11.04;64.75
1652;BME280;823;49.028;8.454;2023-02-04T00:05:21;101846.13;;;11.00;65.44
1652;BME280;823;49.028;8.454;2023-02-04T00:10:21;101854.63;;;11.13;64.89
1652;BME280;823;49.028;8.454;2023-02-04T00:15:22;101849.34;;;11.21;64.78
1652;BME280;823;49.028;8.454;2023-02-04T00:20:22;101850.19;;;11.24;64.61
1652;BME280;823;49.028;8.454;2023-02-04T00:25:23;101871.97;;;11.06;65.47
1652;BME280;823;49.028;8.454;2023-02-04T00:30:23;101862.63;;;10.92;66.28
1652;BME280;823;49.028;8.454;2023-02-04T00:35:23;101858.25;;;10.98;66.10
1652;BME280;823;49.028;8.454;2023-02-04T00:40:24;101861.56;;;11.11;65.63
1652;BME280;823;49.028;8.454;2023-02-04T00:45:24;101857.22;;;11.15;65.60
1652;BME280;823;49.028;8.454;2023-02-04T00:50:25;101864.97;;;11.15;65.73
1652;BME280;823;49.028;8.454;2023-02-04T00:55:25;101868.69;;;10.90;66.72
1652;BME280;823;49.028;8.454;2023-02-04T01:00:25;101868.63;;;10.97;66.61
1652;BME280;823;49.028;8.454;2023-02-04T01:05:26;101867.63;;;11.08;66.20
1652;BME280;823;49.028;8.454;2023-02-04T01:10:27;101874.56;;;11.03;66.65
1652;BME280;823;49.028;8.454;2023-02-04T01:15:27;101873.84;;;10.90;66.99
1652;BME280;823;49.028;8.454;2023-02-04T01:20:27;101881.44;;;11.07;66.53
1652;BME280;823;49.028;8.454;2023-02-04T01:25:28;101888.94;;;11.32;65.85
1652;BME280;823;49.028;8.454;2023-02-04T01:30:28;101877.69;;;11.33;65.58
1652;BME280;823;49.028;8.454;2023-02-04T01:35:28;101888.19;;;11.21;66.15
1652;BME280;823;49.028;8.454;2023-02-04T01:40:29;101896.69;;;11.32;65.71
1652;BME280;823;49.028;8.454;2023-02-04T01:45:29;101893.47;;;11.15;66.49
1652;BME280;823;49.028;8.454;2023-02-04T01:50:33;101896.59;;;11.41;65.70
1652;BME280;823;49.028;8.454;2023-02-04T01:55:34;101899.06;;;11.52;65.20
1652;BME280;823;49.028;8.454;2023-02-04T02:00:34;101903.34;;;11.55;65.06
1652;BME280;823;49.028;8.454;2023-02-04T02:05:40;101910.44;;;11.39;65.06
1652;BME280;823;49.028;8.454;2023-02-04T02:10:44;101921.56;;;11.47;64.89
1652;BME280;823;49.028;8.454;2023-02-04T02:15:46;101922.41;;;11.48;64.91
1652;BME280;823;49.028;8.454;2023-02-04T02:20:46;101928.44;;;11.50;64.88
1652;BME280;823;49.028;8.454;2023-02-04T02:25:47;101934.50;;;11.49;64.76
1652;BME280;823;49.028;8.454;2023-02-04T02:30:48;101932.78;;;11.48;64.80
1652;BME280;823;49.028;8.454;2023-02-04T02:35:48;101925.84;;;11.50;64.78
1652;BME280;823;49.028;8.454;2023-02-04T02:40:49;101933.66;;;11.48;64.82
1652;BME280;823;49.028;8.454;2023-02-04T02:45:50;101943.09;;;11.54;64.88
1652;BME280;823;49.028;8.454;2023-02-04T02:50:51;101942.22;;;11.55;64.87
1652;BME280;823;49.028;8.454;2023-02-04T02:55:52;101947.41;;;11.55;64.70
1652;BME280;823;49.028;8.454;2023-02-04T03:00:53;101949.09;;;11.56;64.76
1652;BME280;823;49.028;8.454;2023-02-04T03:05:57;101954.38;;;11.48;65.28
1652;BME280;823;49.028;8.454;2023-02-04T03:10:59;101957.84;;;11.46;65.18
1652;BME280;823;49.028;8.454;2023-02-04T03:15:59;101960.53;;;11.36;65.39
1652;BME280;823;49.028;8.454;2023-02-04T03:21:00;101965.84;;;11.27;65.70
1652;BME280;823;49.028;8.454;2023-02-04T03:26:02;101958.03;;;11.30;65.46
1652;BME280;823;49.028;8.454;2023-02-04T03:31:02;101970.16;;;11.27;65.43
1652;BME280;823;49.028;8.454;2023-02-04T03:36:03;101986.56;;;11.25;65.38
1652;BME280;823;49.028;8.454;2023-02-04T03:41:03;101993.47;;;11.25;65.29
1652;BME280;823;49.028;8.454;2023-02-04T03:46:03;101992.69;;;11.18;65.38
1652;BME280;823;49.028;8.454;2023-02-04T03:51:04;102005.81;;;10.98;65.85
1652;BME280;823;49.028;8.454;2023-02-04T03:56:05;102023.06;;;10.99;65.73
1652;BME280;823;49.028;8.454;2023-02-04T04:01:05;102012.69;;;11.02;65.53
1652;BME280;823;49.028;8.454;2023-02-04T04:06:05;102013.72;;;10.81;65.91
1652;BME280;823;49.028;8.454;2023-02-04T04:11:08;102024.94;;;10.82;66.15
1652;BME280;823;49.028;8.454;2023-02-04T04:16:09;102028.44;;;10.75;66.05
1652;BME280;823;49.028;8.454;2023-02-04T04:21:09;102023.31;;;10.67;65.94
1652;BME280;823;49.028;8.454;2023-02-04T04:26:09;102026.75;;;10.67;65.94
1652;BME280;823;49.028;8.454;2023-02-04T04:31:10;102018.13;;;10.68;65.89
1652;BME280;823;49.028;8.454;2023-02-04T04:36:10;102029.38;;;10.69;65.73
1652;BME280;823;49.028;8.454;2023-02-04T04:41:10;102020.69;;;10.70;65.78
1652;BME280;823;49.028;8.454;2023-02-04T04:46:11;102032.81;;;10.68;65.44
1652;BME280;823;49.028;8.454;2023-02-04T04:51:11;102028.53;;;10.64;65.77
1652;BME280;823;49.028;8.454;2023-02-04T04:56:11;102016.50;;;10.56;65.91
1652;BME280;823;49.028;8.454;2023-02-04T05:01:12;102015.72;;;10.41;66.87
1652;BME280;823;49.028;8.454;2023-02-04T05:06:12;102026.09;;;10.31;66.33
1652;BME280;823;49.028;8.454;2023-02-04T05:11:12;102016.63;;;10.36;66.27
1652;BME280;823;49.028;8.454;2023-02-04T05:16:12;102026.88;;;10.49;65.97
1652;BME280;823;49.028;8.454;2023-02-04T05:21:14;102032.06;;;10.50;65.80
1652;BME280;823;49.028;8.454;2023-02-04T05:26:14;102034.63;;;10.56;65.43
1652;BME280;823;49.028;8.454;2023-02-04T05:31:14;102047.53;;;10.58;65.14
1652;BME280;823;49.028;8.454;2023-02-04T05:36:15;102063.09;;;10.49;65.56
1652;BME280;823;49.028;8.454;2023-02-04T05:41:15;102053.59;;;10.49;65.26
1652;BME280;823;49.028;8.454;2023-02-04T05:46:15;102044.06;;;10.59;65.22
1652;BME280;823;49.028;8.454;2023-02-04T05:51:16;102049.22;;;10.65;65.10
1652;BME280;823;49.028;8.454;2023-02-04T05:56:16;102070.75;;;10.66;65.09
1652;BME280;823;49.028;8.454;2023-02-04T06:01:17;102066.47;;;10.65;64.90
1652;BME280;823;49.028;8.454;2023-02-04T06:06:17;102078.56;;;10.63;65.24
1652;BME280;823;49.028;8.454;2023-02-04T06:11:17;102086.31;;;10.63;65.23
1652;BME280;823;49.028;8.454;2023-02-04T06:16:18;102097.50;;;10.63;65.02
1652;BME280;823;49.028;8.454;2023-02-04T06:21:18;102112.19;;;10.64;64.93
1652;BME280;823;49.028;8.454;2023-02-04T06:26:18;102117.34;;;10.69;64.97
1652;BME280;823;49.028;8.454;2023-02-04T06:31:19;102119.94;;;10.69;65.44
1652;BME280;823;49.028;8.454;2023-02-04T06:36:19;102120.78;;;10.69;64.83
1652;BME280;823;49.028;8.454;2023-02-04T06:41:19;102119.06;;;10.68;64.79
1652;BME280;823;49.028;8.454;2023-02-04T06:46:19;102126.81;;;10.67;64.76
1652;BME280;823;49.028;8.454;2023-02-04T06:51:20;102137.19;;;10.65;64.68
1652;BME280;823;49.028;8.454;2023-02-04T06:56:20;102139.75;;;10.68;64.24
1652;BME280;823;49.028;8.454;2023-02-04T07:01:20;102146.66;;;10.68;64.50
1652;BME280;823;49.028;8.454;2023-02-04T07:06:21;102147.53;;;10.68;64.39
1652;BME280;823;49.028;8.454;2023-02-04T07:11:21;102151.84;;;10.63;64.48
1652;BME280;823;49.028;8.454;2023-02-04T07:16:21;102157.03;;;10.65;64.40
1652;BME280;823;49.028;8.454;2023-02-04T07:21:22;102166.53;;;10.63;64.58
1652;BME280;823;49.028;8.454;2023-02-04T07:26:22;102183.78;;;10.62;64.55
1652;BME280;823;49.028;8.454;2023-02-04T07:31:22;102188.09;;;10.62;64.37
1652;BME280;823;49.028;8.454;2023-02-04T07:36:23;102173.44;;;10.62;64.51
1652;BME280;823;49.028;8.454;2023-02-04T07:41:23;102182.03;;;10.67;64.33
1652;BME280;823;49.028;8.454;2023-02-04T07:46:23;102196.69;;;10.68;64.41
1652;BME280;823;49.028;8.454;2023-02-04T07:51:24;102196.66;;;10.71;64.47
1652;BME280;823;49.028;8.454;2023-02-04T07:56:25;102207.00;;;10.78;64.47
1652;BME280;823;49.028;8.454;2023-02-04T08:01:26;102219.94;;;10.81;64.55
1652;BME280;823;49.028;8.454;2023-02-04T08:06:26;102224.22;;;10.86;64.46
1652;BME280;823;49.028;8.454;2023-02-04T08:11:26;102238.00;;;10.92;64.46
1652;BME280;823;49.028;8.454;2023-02-04T08:16:27;102239.69;;;10.97;64.68
1652;BME280;823;49.028;8.454;2023-02-04T08:21:27;102250.91;;;11.02;64.51
1652;BME280;823;49.028;8.454;2023-02-04T08:26:27;102256.03;;;11.10;64.67
1652;BME280;823;49.028;8.454;2023-02-04T08:31:28;102246.50;;;11.17;64.74
1652;BME280;823;49.028;8.454;2023-02-04T08:36:28;102249.06;;;11.23;65.16
1652;BME280;823;49.028;8.454;2023-02-04T08:41:28;102257.66;;;11.25;64.84
1652;BME280;823;49.028;8.454;2023-02-04T08:46:29;102260.25;;;11.25;65.18
1652;BME280;823;49.028;8.454;2023-02-04T08:51:29;102271.47;;;11.30;64.59
1652;BME280;823;49.028;8.454;2023-02-04T08:56:29;102270.50;;;11.42;64.57
1652;BME280;823;49.028;8.454;2023-02-04T09:01:30;102288.69;;;11.37;64.91
1652;BME280;823;49.028;8.454;2023-02-04T09:06:30;102287.75;;;11.51;64.61
1652;BME280;823;49.028;8.454;2023-02-04T09:11:30;102292.81;;;11.66;64.88
1652;BME280;823;49.028;8.454;2023-02-04T09:16:31;102299.72;;;11.70;64.38
1652;BME280;823;49.028;8.454;2023-02-04T09:21:31;102298.97;;;11.50;64.17
1652;BME280;823;49.028;8.454;2023-02-04T09:26:32;102302.34;;;11.61;63.90
1652;BME280;823;49.028;8.454;2023-02-04T09:31:32;102302.31;;;11.70;63.50
1652;BME280;823;49.028;8.454;2023-02-04T09:36:32;102305.72;;;11.72;63.48
1652;BME280;823;49.028;8.454;2023-02-04T09:41:40;102313.38;;;11.94;62.27
1652;BME280;823;49.028;8.454;2023-02-04T09:46:44;102312.47;;;12.01;61.86
1652;BME280;823;49.028;8.454;2023-02-04T09:51:46;102309.84;;;12.04;61.01
1652;BME280;823;49.028;8.454;2023-02-04T09:56:48;102320.88;;;12.26;61.45
1652;BME280;823;49.028;8.454;2023-02-04T10:02:00;102331.31;;;12.23;61.06
1652;BME280;823;49.028;8.454;2023-02-04T10:07:01;102319.09;;;12.33;60.47
1652;BME280;823;49.028;8.454;2023-02-04T10:12:03;102320.38;;;11.76;59.75
1652;BME280;823;49.028;8.454;2023-02-04T10:17:03;102319.59;;;11.71;59.66
1652;BME280;823;49.028;8.454;2023-02-04T10:22:11;102335.97;;;11.75;59.97
1652;BME280;823;49.028;8.454;2023-02-04T10:27:14;102340.34;;;11.64;60.38
1652;BME280;823;49.028;8.454;2023-02-04T10:32:31;102336.81;;;11.74;59.89
1652;BME280;823;49.028;8.454;2023-02-04T10:37:31;102338.53;;;11.76;59.64
1652;BME280;823;49.028;8.454;2023-02-04T10:42:32;102341.03;;;11.89;59.41
1652;BME280;823;49.028;8.454;2023-02-04T10:47:32;102341.06;;;11.95;58.46
1652;BME280;823;49.028;8.454;2023-02-04T10:52:41;102334.00;;;12.09;55.98
1652;BME280;823;49.028;8.454;2023-02-04T10:57:45;102336.59;;;12.09;52.31
1652;BME280;823;49.028;8.454;2023-02-04T11:03:01;102337.34;;;12.27;51.05
1652;BME280;823;49.028;8.454;2023-02-04T11:08:18;102333.03;;;12.23;50.30
1652;BME280;823;49.028;8.454;2023-02-04T11:13:25;102338.09;;;12.38;51.75
1652;BME280;823;49.028;8.454;2023-02-04T11:18:28;102339.78;;;12.42;52.85
1652;BME280;823;49.028;8.454;2023-02-04T11:23:32;102326.75;;;12.50;52.11
1652;BME280;823;49.028;8.454;2023-02-04T11:28:48;102334.31;;;12.70;52.14
1652;BME280;823;49.028;8.454;2023-02-04T11:34:01;102329.72;;;12.92;52.00
1652;BME280;823;49.028;8.454;2023-02-04T11:39:15;102332.03;;;13.17;48.29
1652;BME280;823;49.028;8.454;2023-02-04T11:44:16;102321.50;;;13.28;48.86
1652;BME280;823;49.028;8.454;2023-02-04T11:49:18;102321.56;;;13.22;48.97
1652;BME280;823;49.028;8.454;2023-02-04T11:54:19;102326.84;;;13.17;49.66
1652;BME280;823;49.028;8.454;2023-02-04T11:59:20;102326.31;;;12.87;48.30
1652;BME280;823;49.028;8.454;2023-02-04T12:04:23;102334.09;;;12.89;50.29
1652;BME280;823;49.028;8.454;2023-02-04T12:09:25;102336.00;;;12.73;49.92
1652;BME280;823;49.028;8.454;2023-02-04T12:14:34;102321.31;;;12.70;48.72
1652;BME280;823;49.028;8.454;2023-02-04T12:19:35;102318.72;;;12.70;48.34
1652;BME280;823;49.028;8.454;2023-02-04T12:24:36;102311.75;;;12.77;48.71
1652;BME280;823;49.028;8.454;2023-02-04T12:29:36;102312.41;;;12.93;49.11
1652;BME280;823;49.028;8.454;2023-02-04T12:34:36;102320.41;;;12.74;47.61
1652;BME280;823;49.028;8.454;2023-02-04T12:39:37;102323.88;;;12.73;44.93
1652;BME280;823;49.028;8.454;2023-02-04T12:44:37;102317.59;;;12.96;46.25
1652;BME280;823;49.028;8.454;2023-02-04T12:49:37;102324.31;;;13.09;46.49
1652;BME280;823;49.028;8.454;2023-02-04T12:54:37;102326.97;;;13.06;45.85
1652;BME280;823;49.028;8.454;2023-02-04T12:59:38;102318.38;;;13.01;47.11
1652;BME280;823;49.028;8.454;2023-02-04T13:04:38;102330.91;;;12.65;45.97
1652;BME280;823;49.028;8.454;2023-02-04T13:09:39;102338.66;;;12.70;46.32
1652;BME280;823;49.028;8.454;2023-02-04T13:14:40;102332.56;;;12.72;46.75
1652;BME280;823;49.028;8.454;2023-02-04T13:19:41;102326.41;;;12.81;45.33
1652;BME280;823;49.028;8.454;2023-02-04T13:24:41;102331.41;;;12.97;43.57
1652;BME280;823;49.028;8.454;2023-02-04T13:29:42;102331.16;;;13.18;43.58
1652;BME280;823;49.028;8.454;2023-02-04T13:34:42;102321.41;;;13.36;42.91
1652;BME280;823;49.028;8.454;2023-02-04T13:39:42;102320.25;;;13.58;42.07
1652;BME280;823;49.028;8.454;2023-02-04T13:44:43;102321.09;;;13.59;41.59
1652;BME280;823;49.028;8.454;2023-02-04T13:49:43;102327.03;;;13.67;41.19
1652;BME280;823;49.028;8.454;2023-02-04T13:54:44;102323.63;;;13.63;42.01
1652;BME280;823;49.028;8.454;2023-02-04T13:59:45;102329.41;;;13.19;41.16
1652;BME280;823;49.028;8.454;2023-02-04T14:04:45;102334.78;;;13.05;41.31
1652;BME280;823;49.028;8.454;2023-02-04T14:09:45;102334.03;;;12.95;40.63
1652;BME280;823;49.028;8.454;2023-02-04T14:14:47;102350.50;;;12.92;40.61
1652;BME280;823;49.028;8.454;2023-02-04T14:19:47;102338.38;;;12.93;42.24
1652;BME280;823;49.028;8.454;2023-02-04T14:24:48;102348.91;;;12.81;42.87
1652;BME280;823;49.028;8.454;2023-02-04T14:29:49;102352.00;;;13.12;43.30
1652;BME280;823;49.028;8.454;2023-02-04T14:34:49;102354.44;;;13.26;42.49
1652;BME280;823;49.028;8.454;2023-02-04T14:39:50;102345.66;;;13.33;42.54
1652;BME280;823;49.028;8.454;2023-02-04T14:44:50;102343.78;;;13.49;38.68
1652;BME280;823;49.028;8.454;2023-02-04T14:49:50;102350.56;;;13.58;38.50
1652;BME280;823;49.028;8.454;2023-02-04T14:54:50;102351.69;;;13.40;37.77
1652;BME280;823;49.028;8.454;2023-02-04T14:59:51;102348.88;;;13.57;38.65
1652;BME280;823;49.028;8.454;2023-02-04T15:04:51;102343.78;;;13.49;38.09
1652;BME280;823;49.028;8.454;2023-02-04T15:09:51;102340.22;;;13.55;37.75
1652;BME280;823;49.028;8.454;2023-02-04T15:14:52;102340.16;;;13.58;39.06
1652;BME280;823;49.028;8.454;2023-02-04T15:19:52;102343.69;;;13.57;37.15
1652;BME280;823;49.028;8.454;2023-02-04T15:24:52;102347.38;;;13.37;36.42
1652;BME280;823;49.028;8.454;2023-02-04T15:29:53;102356.91;;;13.38;37.01
1652;BME280;823;49.028;8.454;2023-02-04T15:34:54;102348.59;;;13.10;36.65
1652;BME280;823;49.028;8.454;2023-02-04T15:39:54;102357.31;;;13.03;40.10
1652;BME280;823;49.028;8.454;2023-02-04T15:44:55;102366.19;;;12.86;42.48
1652;BME280;823;49.028;8.454;2023-02-04T15:49:55;102365.47;;;12.70;43.47
1652;BME280;823;49.028;8.454;2023-02-04T15:54:55;102375.94;;;12.64;44.07
1652;BME280;823;49.028;8.454;2023-02-04T15:59:56;102369.16;;;12.48;44.58
1652;BME280;823;49.028;8.454;2023-02-04T16:04:57;102379.66;;;12.35;45.16
1652;BME280;823;49.028;8.454;2023-02-04T16:09:57;102391.84;;;12.21;45.44
1652;BME280;823;49.028;8.454;2023-02-04T16:14:58;102393.72;;;12.03;45.91
1652;BME280;823;49.028;8.454;2023-02-04T16:19:58;102397.22;;;11.96;46.35
1652;BME280;823;49.028;8.454;2023-02-04T16:24:58;102401.56;;;11.86;46.68
1652;BME280;823;49.028;8.454;2023-02-04T16:29:59;102408.53;;;11.75;47.38
1652;BME280;823;49.028;8.454;2023-02-04T16:34:59;102419.00;;;11.61;47.81
1652;BME280;823;49.028;8.454;2023-02-04T16:40:01;102418.19;;;11.47;48.65
1652;BME280;823;49.028;8.454;2023-02-04T16:45:01;102409.59;;;11.34;49.14
1652;BME280;823;49.028;8.454;2023-02-04T16:50:03;102430.38;;;11.20;49.59
1652;BME280;823;49.028;8.454;2023-02-04T16:55:03;102427.84;;;11.00;50.09
1652;BME280;823;49.028;8.454;2023-02-04T17:00:04;102431.31;;;10.83;50.09
1652;BME280;823;49.028;8.454;2023-02-04T17:05:05;102436.53;;;10.65;50.79
1652;BME280;823;49.028;8.454;2023-02-04T17:10:06;102429.59;;;10.42;51.37
1652;BME280;823;49.028;8.454;2023-02-04T17:15:06;102437.31;;;10.28;51.90
1652;BME280;823;49.028;8.454;2023-02-04T17:20:07;102440.75;;;10.15;52.40
1652;BME280;823;49.028;8.454;2023-02-04T17:25:07;102439.91;;;10.07;52.91
1652;BME280;823;49.028;8.454;2023-02-04T17:30:08;102451.06;;;9.98;53.26
1652;BME280;823;49.028;8.454;2023-02-04T17:35:09;102448.44;;;9.84;53.42
1652;BME280;823;49.028;8.454;2023-02-04T17:40:10;102451.81;;;9.69;53.67
1652;BME280;823;49.028;8.454;2023-02-04T17:45:13;102466.44;;;9.59;53.99
1652;BME280;823;49.028;8.454;2023-02-04T17:50:14;102462.06;;;9.44;54.82
1652;BME280;823;49.028;8.454;2023-02-04T17:55:19;102462.88;;;9.35;54.90
1652;BME280;823;49.028;8.454;2023-02-04T18:00:25;102461.97;;;9.29;55.23
1652;BME280;823;49.028;8.454;2023-02-04T18:05:27;102461.00;;;9.10;55.09
1652;BME280;823;49.028;8.454;2023-02-04T18:10:34;102466.19;;;9.10;55.30
1652;BME280;823;49.028;8.454;2023-02-04T18:15:35;102470.44;;;9.03;55.74
1652;BME280;823;49.028;8.454;2023-02-04T18:20:35;102472.09;;;8.95;56.16
1652;BME280;823;49.028;8.454;2023-02-04T18:25:35;102468.63;;;8.94;55.96
1652;BME280;823;49.028;8.454;2023-02-04T18:30:36;102469.50;;;8.92;55.99
1652;BME280;823;49.028;8.454;2023-02-04T18:35:40;102466.00;;;8.86;56.37
1652;BME280;823;49.028;8.454;2023-02-04T18:40:41;102476.31;;;8.83;56.58
1652;BME280;823;49.028;8.454;2023-02-04T18:45:41;102478.91;;;8.85;56.76
1652;BME280;823;49.028;8.454;2023-02-04T18:50:42;102478.91;;;8.88;56.77
1652;BME280;823;49.028;8.454;2023-02-04T18:55:44;102477.19;;;8.89;56.64
1652;BME280;823;49.028;8.454;2023-02-04T19:00:52;102484.09;;;8.93;57.06
1652;BME280;823;49.028;8.454;2023-02-04T19:05:57;102480.69;;;8.92;56.65
1652;BME280;823;49.028;8.454;2023-02-04T19:10:58;102483.28;;;8.95;56.48
1652;BME280;823;49.028;8.454;2023-02-04T19:16:01;102490.16;;;8.95;56.64
1652;BME280;823;49.028;8.454;2023-02-04T19:26:39;102496.16;;;8.91;55.99
1652;BME280;823;49.028;8.454;2023-02-04T19:31:40;102499.56;;;8.85;55.90
1652;BME280;823;49.028;8.454;2023-02-04T19:36:41;102504.72;;;8.88;55.22
1652;BME280;823;49.028;8.454;2023-02-04T19:41:48;102495.25;;;8.90;55.46
1652;BME280;823;49.028;8.454;2023-02-04T19:46:49;102494.47;;;8.97;55.29
1652;BME280;823;49.028;8.454;2023-02-04T19:51:57;102490.19;;;9.02;55.34
1652;BME280;823;49.028;8.454;2023-02-04T19:56:57;102496.25;;;9.06;55.18
1652;BME280;823;49.028;8.454;2023-02-04T20:02:08;102495.44;;;9.12;55.41
1652;BME280;823;49.028;8.454;2023-02-04T20:07:20;102494.63;;;9.20;55.11
1652;BME280;823;49.028;8.454;2023-02-04T20:12:20;102493.75;;;9.17;55.38
1652;BME280;823;49.028;8.454;2023-02-04T20:17:43;102498.94;;;9.23;55.10
1652;BME280;823;49.028;8.454;2023-02-04T20:22:51;102493.75;;;9.15;54.17
1652;BME280;823;49.028;8.454;2023-02-04T20:27:54;102493.75;;;9.14;54.05
1652;BME280;823;49.028;8.454;2023-02-04T20:32:58;102491.94;;;9.03;54.18
1652;BME280;823;49.028;8.454;2023-02-04T20:38:09;102490.91;;;8.84;54.66
1652;BME280;823;49.028;8.454;2023-02-04T20:43:19;102500.56;;;9.06;54.14
1652;BME280;823;49.028;8.454;2023-02-04T20:48:36;102503.16;;;9.09;54.38
1652;BME280;823;49.028;8.454;2023-02-04T20:58:49;102521.22;;;9.07;54.81
1652;BME280;823;49.028;8.454;2023-02-04T21:03:50;102522.06;;;9.05;54.53
1652;BME280;823;49.028;8.454;2023-02-04T21:08:52;102529.84;;;9.11;54.79
1652;BME280;823;49.028;8.454;2023-02-04T21:13:53;102526.44;;;9.15;54.74
1652;BME280;823;49.028;8.454;2023-02-04T21:18:53;102526.47;;;9.18;54.50
1652;BME280;823;49.028;8.454;2023-02-04T21:23:54;102532.50;;;9.20;54.40
1652;BME280;823;49.028;8.454;2023-02-04T21:28:54;102537.69;;;9.23;54.84
1652;BME280;823;49.028;8.454;2023-02-04T21:33:54;102535.97;;;9.22;55.05
1652;BME280;823;49.028;8.454;2023-02-04T21:38:56;102540.25;;;9.23;55.06
1652;BME280;823;49.028;8.454;2023-02-04T21:43:56;102547.13;;;9.18;55.04
1652;BME280;823;49.028;8.454;2023-02-04T21:48:57;102542.81;;;9.17;54.76
1652;BME280;823;49.028;8.454;2023-02-04T21:53:57;102535.00;;;9.11;55.00
1652;BME280;823;49.028;8.454;2023-02-04T21:58:58;102540.13;;;9.01;55.07
1652;BME280;823;49.028;8.454;2023-02-04T22:03:59;102538.28;;;8.91;55.13
1652;BME280;823;49.028;8.454;2023-02-04T22:08:59;102532.31;;;8.95;55.01
1652;BME280;823;49.028;8.454;2023-02-04T22:13:59;102526.28;;;8.93;55.23
1652;BME280;823;49.028;8.454;2023-02-04T22:19:00;102524.53;;;8.88;54.89
1652;BME280;823;49.028;8.454;2023-02-04T22:24:00;102519.16;;;8.64;55.13
1652;BME280;823;49.028;8.454;2023-02-04T22:29:00;102525.25;;;8.74;54.92
1652;BME280;823;49.028;8.454;2023-02-04T22:34:00;102528.66;;;8.70;55.12
1652;BME280;823;49.028;8.454;2023-02-04T22:39:01;102526.88;;;8.64;54.71
1652;BME280;823;49.028;8.454;2023-02-04T22:44:01;102525.91;;;8.51;55.24
1652;BME280;823;49.028;8.454;2023-02-04T22:49:02;102531.78;;;8.43;55.50
1652;BME280;823;49.028;8.454;2023-02-04T22:54:02;102535.94;;;8.28;55.41
1652;BME280;823;49.028;8.454;2023-02-04T22:59:03;102526.34;;;8.16;55.80
1652;BME280;823;49.028;8.454;2023-02-04T23:04:03;102513.31;;;8.02;56.05
1652;BME280;823;49.028;8.454;2023-02-04T23:09:03;102514.84;;;7.87;56.52
1652;BME280;823;49.028;8.454;2023-02-04T23:14:04;102515.59;;;7.79;56.51
1652;BME280;823;49.028;8.454;2023-02-04T23:19:04;102536.25;;;7.81;56.56
1652;BME280;823;49.028;8.454;2023-02-04T23:24:04;102533.56;;;7.73;56.73
1652;BME280;823;49.028;8.454;2023-02-04T23:29:05;102528.34;;;7.69;57.00
1652;BME280;823;49.028;8.454;2023-02-04T23:34:05;102525.75;;;7.67;56.96
1652;BME280;823;49.028;8.454;2023-02-04T23:39:06;102525.66;;;7.59;57.33
1652;BME280;823;49.028;8.454;2023-02-04T23:44:06;102536.72;;;7.54;57.07
1652;BME280;823;49.028;8.454;2023-02-04T23:49:07;102533.13;;;7.41;57.49
1652;BME280;823;49.028;8.454;2023-02-04T23:54:07;102529.66;;;7.39;57.37
1652;BME280;823;49.028;8.454;2023-02-04T23:59:08;102533.00;;;7.33;57.57
